Terminal Aerodrome Forecast
Issued by NWS

Current Version | Previous Version | Graphics & Text | Print | Product List | Glossary On
Versions: 1 2 3 4 5 6 7 8 9 10 11 12 13 14 15 16 17 18 19 20 21 22
000
FTUS41 KILN 031100
TAFLUK
TAF
KLUK 031120Z 0312/0412 04005KT P6SM VCSH BKN029 BKN045 OVC060
      TEMPO 0312/0316 5SM -RA BR OVC014
     FM031600 04008KT P6SM VCSH SCT028 BKN040
     FM040100 01003KT P6SM SCT040
     FM040600 00000KT 4SM BR SCT040=

USA.gov is the U.S. government's official web portal to all federal, state and local government web resources and services.